createdAt,value
2018-02-21T00:00:24.314Z,31.70
2018-02-21T00:01:30.494Z,31.95
2018-02-21T00:02:36.696Z,32.67
2018-02-21T00:03:42.848Z,35.30
2018-02-21T00:04:49.049Z,35.00
2018-02-21T00:05:55.263Z,33.15
2018-02-21T00:07:01.457Z,37.47
2018-02-21T00:08:08.230Z,30.10
2018-02-21T00:09:14.449Z,30.67
2018-02-21T00:10:20.092Z,32.25
2018-02-21T00:11:25.965Z,30.73
2018-02-21T00:12:32.208Z,32.22
2018-02-21T00:13:38.370Z,32.35
2018-02-21T00:14:44.567Z,28.02
2018-02-21T00:15:50.454Z,30.55
2018-02-21T00:16:56.669Z,30.98
2018-02-21T00:18:02.570Z,30.85
2018-02-21T00:19:08.785Z,32.33
2018-02-21T00:20:14.989Z,34.83
2018-02-21T00:21:21.222Z,35.85
2018-02-21T00:22:27.428Z,31.73
2018-02-21T00:23:33.377Z,33.67
2018-02-21T00:24:39.577Z,32.33
2018-02-21T00:25:45.769Z,31.08
2018-02-21T00:26:51.942Z,36.75
2018-02-21T00:27:58.103Z,37.05
2018-02-21T00:29:03.919Z,35.40
2018-02-21T00:30:09.691Z,30.40
2018-02-21T00:31:15.893Z,32.38
2018-02-21T00:32:22.129Z,33.65
2018-02-21T00:33:28.293Z,33.90
2018-02-21T00:34:34.475Z,31.35
2018-02-21T00:35:40.628Z,34.72
2018-02-21T00:36:46.848Z,34.25
2018-02-21T00:37:53.029Z,35.63
2018-02-21T00:39:00.053Z,34.00
2018-02-21T00:40:06.201Z,33.60
2018-02-21T00:41:12.396Z,31.08
2018-02-21T00:42:18.585Z,39.10
2018-02-21T00:43:24.777Z,33.28
2018-02-21T00:44:30.969Z,33.13
2018-02-21T00:45:39.145Z,32.67
2018-02-21T00:46:45.336Z,38.55
2018-02-21T00:47:51.530Z,32.25
2018-02-21T00:48:57.728Z,35.63
2018-02-21T00:50:03.915Z,35.53
2018-02-21T00:51:10.156Z,38.65
2018-02-21T00:52:16.432Z,31.55
2018-02-21T00:53:22.695Z,36.05
2018-02-21T00:54:28.921Z,31.77
2018-02-21T00:55:35.127Z,33.58
2018-02-21T00:56:41.287Z,32.47
2018-02-21T00:57:47.490Z,35.55
2018-02-21T00:58:53.645Z,40.45
2018-02-21T01:00:02.691Z,35.67
2018-02-21T01:01:08.632Z,37.80
2018-02-21T01:02:14.815Z,35.97
2018-02-21T01:03:20.989Z,37.00
2018-02-21T01:04:29.043Z,34.08
2018-02-21T01:05:36.549Z,35.53
2018-02-21T01:06:43.112Z,32.05
2018-02-21T01:07:49.295Z,38.67
2018-02-21T01:08:57.459Z,35.80
2018-02-21T01:10:03.640Z,30.80
2018-02-21T01:11:09.864Z,32.25
2018-02-21T01:12:16.061Z,36.88
2018-02-21T01:13:21.959Z,34.85
2018-02-21T01:14:28.113Z,29.08
2018-02-21T01:15:34.322Z,31.58
2018-02-21T01:16:40.553Z,28.70
2018-02-21T01:17:46.773Z,31.87
2018-02-21T01:18:53.360Z,30.62
2018-02-21T01:19:59.596Z,38.50
2018-02-21T01:21:05.903Z,32.17
2018-02-21T01:22:12.074Z,33.33
2018-02-21T01:23:18.298Z,34.90
2018-02-21T01:24:27.772Z,37.30
2018-02-21T01:25:34.131Z,29.58
2018-02-21T01:26:50.731Z,32.25
2018-02-21T01:27:57.207Z,31.30
2018-02-21T01:29:03.363Z,32.08
2018-02-21T01:30:09.258Z,35.20
2018-02-21T01:31:15.657Z,32.65
2018-02-21T01:32:21.824Z,35.08
2018-02-21T01:33:27.642Z,34.13
2018-02-21T01:34:33.846Z,29.25
2018-02-21T01:35:40.058Z,31.35
2018-02-21T01:36:46.209Z,34.58
2018-02-21T01:37:52.415Z,29.23
2018-02-21T01:38:58.632Z,29.92
2018-02-21T01:40:04.857Z,34.92
2018-02-21T01:41:11.111Z,29.33
2018-02-21T01:42:17.338Z,32.33
2018-02-21T01:43:23.548Z,28.92
2018-02-21T01:44:29.704Z,28.08
2018-02-21T01:45:35.622Z,31.12
2018-02-21T01:46:41.832Z,33.65
2018-02-21T01:47:48.218Z,30.95
2018-02-21T01:48:54.416Z,33.75
2018-02-21T01:50:09.447Z,31.12
2018-02-21T01:51:15.665Z,37.78
2018-02-21T01:52:21.820Z,33.13
2018-02-21T01:53:27.977Z,31.02
2018-02-21T01:54:34.229Z,31.87
2018-02-21T01:55:40.429Z,35.00
2018-02-21T01:56:51.495Z,33.88
2018-02-21T01:57:57.646Z,33.40
2018-02-21T01:59:11.121Z,34.65
2018-02-21T02:00:17.341Z,33.65
2018-02-21T02:01:22.241Z,28.75
2018-02-21T02:02:28.445Z,32.38
2018-02-21T02:03:34.654Z,30.67
2018-02-21T02:04:40.822Z,30.58
2018-02-21T02:05:47.047Z,27.13
2018-02-21T02:06:53.005Z,34.97
2018-02-21T02:07:59.183Z,31.35
2018-02-21T02:09:04.270Z,33.17
2018-02-21T02:10:10.504Z,31.45
2018-02-21T02:11:16.720Z,32.80
2018-02-21T02:12:22.981Z,34.50
2018-02-21T02:13:29.166Z,31.52
2018-02-21T02:14:35.365Z,33.33
2018-02-21T02:15:41.537Z,35.33
2018-02-21T02:16:48.324Z,31.60
2018-02-21T02:17:54.509Z,29.20
2018-02-21T02:19:00.713Z,34.05
2018-02-21T02:20:06.934Z,32.78
2018-02-21T02:21:13.159Z,32.13
2018-02-21T02:22:19.321Z,35.88
2018-02-21T02:23:34.061Z,29.55
2018-02-21T02:24:40.265Z,37.60
2018-02-21T02:25:46.490Z,34.85
2018-02-21T02:26:52.740Z,31.23
2018-02-21T02:27:58.902Z,35.97
2018-02-21T02:29:07.000Z,32.67
2018-02-21T02:30:13.241Z,32.33
2018-02-21T02:31:19.406Z,33.35
2018-02-21T02:32:25.575Z,35.45
2018-02-21T02:33:31.796Z,33.90
2018-02-21T02:34:37.982Z,35.17
2018-02-21T02:35:44.132Z,33.92
2018-02-21T02:36:50.290Z,39.50
2018-02-21T02:37:56.613Z,36.30
2018-02-21T02:39:13.597Z,39.60
2018-02-21T02:40:19.486Z,32.10
2018-02-21T02:41:25.765Z,35.80
2018-02-21T02:42:31.945Z,33.05
2018-02-21T02:43:38.163Z,34.92
2018-02-21T02:44:44.310Z,34.20
2018-02-21T02:45:50.519Z,36.88
2018-02-21T02:46:56.447Z,36.45
2018-02-21T02:48:02.618Z,35.45
2018-02-21T02:49:08.810Z,31.70
2018-02-21T02:50:15.025Z,37.08
2018-02-21T02:51:21.252Z,33.47
2018-02-21T02:52:27.491Z,33.60
2018-02-21T02:53:33.692Z,37.05
2018-02-21T02:54:39.905Z,35.00
2018-02-21T02:55:46.373Z,33.08
2018-02-21T02:56:52.585Z,32.70
2018-02-21T02:57:58.761Z,34.58
2018-02-21T02:59:04.926Z,34.30
2018-02-21T03:00:10.272Z,32.67
2018-02-21T03:01:17.435Z,32.63
2018-02-21T03:02:23.626Z,34.55
2018-02-21T03:03:29.802Z,33.00
2018-02-21T03:04:35.994Z,36.03
2018-02-21T03:05:42.162Z,32.47
2018-02-21T03:06:48.392Z,32.47
2018-02-21T03:07:54.986Z,32.30
2018-02-21T03:09:01.217Z,36.85
2018-02-21T03:10:07.502Z,35.80
2018-02-21T03:11:13.685Z,33.60
2018-02-21T03:12:19.958Z,36.70
2018-02-21T03:13:26.158Z,34.75
2018-02-21T03:14:32.311Z,37.35
2018-02-21T03:15:38.576Z,33.75
2018-02-21T03:16:44.584Z,32.05
2018-02-21T03:17:50.986Z,40.55
2018-02-21T03:18:57.176Z,36.17
2018-02-21T03:20:03.373Z,32.55
2018-02-21T03:21:09.601Z,35.85
2018-02-21T03:22:15.822Z,38.13
2018-02-21T03:23:22.023Z,35.78
2018-02-21T03:24:28.213Z,34.90
2018-02-21T03:25:34.818Z,34.40
2018-02-21T03:26:41.152Z,32.55
2018-02-21T03:27:47.336Z,37.47
2018-02-21T03:28:53.556Z,34.33
2018-02-21T03:29:59.749Z,34.35
2018-02-21T03:31:05.960Z,35.40
2018-02-21T03:32:11.706Z,37.50
2018-02-21T03:33:17.849Z,36.67
2018-02-21T03:34:24.023Z,36.80
2018-02-21T03:35:30.586Z,39.45
2018-02-21T03:36:36.910Z,35.40
2018-02-21T03:37:43.091Z,34.88
2018-02-21T03:38:49.282Z,32.72
2018-02-21T03:39:55.497Z,35.55
2018-02-21T03:41:01.693Z,36.88
2018-02-21T03:42:07.922Z,33.72
2018-02-21T03:43:14.518Z,38.22
2018-02-21T03:44:21.156Z,36.13
2018-02-21T03:45:27.551Z,37.60
2018-02-21T03:46:33.748Z,45.78
2018-02-21T03:47:39.904Z,36.47
2018-02-21T03:48:46.134Z,39.92
2018-02-21T03:49:52.452Z,38.97
2018-02-21T03:50:58.625Z,32.78
2018-02-21T03:52:04.916Z,40.00
2018-02-21T03:53:11.097Z,39.00
2018-02-21T03:54:21.686Z,35.50
2018-02-21T03:55:29.132Z,32.35
2018-02-21T03:56:39.935Z,37.97
2018-02-21T03:57:48.898Z,38.17
2018-02-21T03:58:56.027Z,34.90
2018-02-21T04:00:02.933Z,33.13
2018-02-21T04:01:09.114Z,37.40
2018-02-21T04:02:15.904Z,39.00
2018-02-21T04:03:22.126Z,35.47
2018-02-21T04:04:28.366Z,35.05
2018-02-21T04:05:35.255Z,35.72
2018-02-21T04:06:41.447Z,40.08
2018-02-21T04:07:48.653Z,42.22
2018-02-21T04:08:54.860Z,36.80
2018-02-21T04:10:01.145Z,38.65
2018-02-21T04:11:08.259Z,37.75
2018-02-21T04:12:14.494Z,38.15
2018-02-21T04:13:20.822Z,33.03
2018-02-21T04:14:27.065Z,34.33
2018-02-21T04:15:33.252Z,40.95
2018-02-21T04:16:44.308Z,38.38
2018-02-21T04:17:50.494Z,42.55
2018-02-21T04:19:00.307Z,38.80
2018-02-21T04:20:06.452Z,39.75
2018-02-21T04:21:12.652Z,42.38
2018-02-21T04:22:18.819Z,43.90
2018-02-21T04:23:25.034Z,36.83
2018-02-21T04:24:31.311Z,39.50
2018-02-21T04:25:37.664Z,35.22
2018-02-21T04:26:43.850Z,37.50
2018-02-21T04:27:50.090Z,33.97
2018-02-21T04:28:56.334Z,39.03
2018-02-21T04:30:02.899Z,36.05
2018-02-21T04:31:09.064Z,39.90
2018-02-21T04:32:15.312Z,38.63
2018-02-21T04:33:21.516Z,37.80
2018-02-21T04:34:27.665Z,36.45
2018-02-21T04:35:33.927Z,35.97
2018-02-21T04:36:39.787Z,38.08
2018-02-21T04:37:45.993Z,41.13
2018-02-21T04:38:52.437Z,30.77
2018-02-21T04:39:59.416Z,38.38
2018-02-21T04:41:06.774Z,40.50
2018-02-21T04:42:14.922Z,34.55
2018-02-21T04:43:22.596Z,37.53
2018-02-21T04:44:29.916Z,38.08
2018-02-21T04:45:36.666Z,41.63
2018-02-21T04:46:44.134Z,38.70
2018-02-21T04:47:51.741Z,37.85
2018-02-21T04:48:58.419Z,41.10
2018-02-21T04:50:04.679Z,37.15
2018-02-21T04:51:10.858Z,41.03
2018-02-21T04:52:17.632Z,38.80
2018-02-21T04:53:25.098Z,38.92
2018-02-21T04:54:37.321Z,39.65
2018-02-21T04:57:37.169Z,36.58
2018-02-21T04:58:48.960Z,39.17
2018-02-21T04:59:55.018Z,34.92
2018-02-21T05:01:04.550Z,36.72
2018-02-21T05:02:10.617Z,38.60
2018-02-21T05:03:17.708Z,33.08
2018-02-21T05:04:23.851Z,39.63
2018-02-21T05:05:30.257Z,35.25
2018-02-21T05:06:36.260Z,36.08
2018-02-21T05:07:42.522Z,33.83
2018-02-21T05:08:49.017Z,31.25
2018-02-21T05:09:55.168Z,39.05
2018-02-21T05:11:01.381Z,38.42
2018-02-21T05:12:07.592Z,39.58
2018-02-21T05:13:13.772Z,41.13
2018-02-21T05:14:19.945Z,38.13
2018-02-21T05:15:26.090Z,37.70
2018-02-21T05:16:32.360Z,36.83
2018-02-21T05:17:38.751Z,38.63
2018-02-21T05:18:44.925Z,38.45
2018-02-21T05:19:51.156Z,35.53
2018-02-21T05:20:57.420Z,37.05
2018-02-21T05:22:03.656Z,41.15
2018-02-21T05:23:09.919Z,34.80
2018-02-21T05:24:16.118Z,37.55
2018-02-21T05:25:22.373Z,38.17
2018-02-21T05:26:28.619Z,35.85
2018-02-21T05:27:34.864Z,34.60
2018-02-21T05:28:41.060Z,34.67
2018-02-21T05:29:47.258Z,33.15
2018-02-21T05:30:53.477Z,35.72
2018-02-21T05:31:59.730Z,37.50
2018-02-21T05:33:05.941Z,36.92
2018-02-21T05:34:12.422Z,33.90
2018-02-21T05:35:18.554Z,38.15
2018-02-21T05:36:24.603Z,33.83
2018-02-21T05:37:30.780Z,37.25
2018-02-21T05:38:37.034Z,34.50
2018-02-21T05:39:43.265Z,38.75
2018-02-21T05:40:49.502Z,38.28
2018-02-21T05:41:55.660Z,44.03
2018-02-21T05:43:01.844Z,42.40
2018-02-21T05:44:07.772Z,36.38
2018-02-21T05:45:13.942Z,36.33
2018-02-21T05:46:20.187Z,34.92
2018-02-21T05:47:26.360Z,36.17
2018-02-21T05:48:32.556Z,34.95
2018-02-21T05:49:38.732Z,42.53
2018-02-21T05:50:44.912Z,45.25
2018-02-21T05:51:50.928Z,35.17
2018-02-21T05:52:57.181Z,37.75
2018-02-21T05:54:03.377Z,37.50
2018-02-21T05:55:09.531Z,40.50
2018-02-21T05:56:15.735Z,37.55
2018-02-21T05:57:21.933Z,38.60
2018-02-21T05:58:27.805Z,39.67
2018-02-21T05:59:33.986Z,42.55
2018-02-21T06:00:40.138Z,39.38
2018-02-21T06:01:46.326Z,36.38
2018-02-21T06:02:52.646Z,42.92
2018-02-21T06:03:58.894Z,39.45
2018-02-21T06:05:12.078Z,40.78
2018-02-21T06:06:18.852Z,46.25
2018-02-21T06:07:25.038Z,38.72
2018-02-21T06:08:31.253Z,39.05
2018-02-21T06:09:37.438Z,38.65
2018-02-21T06:10:43.648Z,54.83
2018-02-21T06:11:49.832Z,39.33
2018-02-21T06:12:56.071Z,42.60
2018-02-21T06:14:01.999Z,44.97
2018-02-21T06:15:08.223Z,47.22
2018-02-21T06:16:14.577Z,48.25
2018-02-21T06:17:20.714Z,52.45
2018-02-21T06:18:26.994Z,49.08
2018-02-21T06:19:33.345Z,50.83
2018-02-21T06:20:39.484Z,50.12
2018-02-21T06:21:45.678Z,49.22
2018-02-21T06:22:51.870Z,49.50
2018-02-21T06:23:58.075Z,52.80
2018-02-21T06:25:04.341Z,56.20
2018-02-21T06:26:10.698Z,56.20
2018-02-21T06:27:16.898Z,59.88
2018-02-21T06:28:23.139Z,63.22
2018-02-21T06:29:29.328Z,57.42
2018-02-21T06:30:35.858Z,54.00
2018-02-21T06:31:42.068Z,54.25
2018-02-21T06:32:49.316Z,51.17
2018-02-21T06:33:55.611Z,50.88
2018-02-21T06:35:01.855Z,46.30
2018-02-21T06:36:08.039Z,50.72
2018-02-21T06:37:14.226Z,51.85
2018-02-21T06:38:20.419Z,48.75
2018-02-21T06:39:26.628Z,49.60
2018-02-21T06:40:32.843Z,49.33
2018-02-21T06:41:39.088Z,43.60
2018-02-21T06:42:45.232Z,51.67
2018-02-21T06:43:51.498Z,49.35
2018-02-21T06:44:57.614Z,49.58
2018-02-21T06:46:03.844Z,47.95
2018-02-21T06:47:10.020Z,47.20
2018-02-21T06:48:16.173Z,49.97
2018-02-21T06:49:22.342Z,45.60
2018-02-21T06:50:28.839Z,45.90
2018-02-21T06:51:35.070Z,41.45
2018-02-21T06:52:41.671Z,47.03
2018-02-21T06:53:47.842Z,48.58
2018-02-21T06:54:53.999Z,51.80
2018-02-21T06:56:00.365Z,42.97
2018-02-21T06:57:06.546Z,42.28
2018-02-21T06:58:12.759Z,54.47
2018-02-21T06:59:19.136Z,41.95
2018-02-21T07:00:25.332Z,50.45
2018-02-21T07:01:31.585Z,43.35
2018-02-21T07:02:37.752Z,42.35
2018-02-21T07:03:43.633Z,48.05
2018-02-21T07:04:49.810Z,42.58
2018-02-21T07:05:56.023Z,46.90
2018-02-21T07:07:03.157Z,45.08
2018-02-21T07:08:11.336Z,42.13
2018-02-21T07:09:17.527Z,45.15
2018-02-21T07:10:23.748Z,47.75
2018-02-21T07:11:29.954Z,44.42
2018-02-21T07:12:36.232Z,44.10
2018-02-21T07:13:42.486Z,49.92
2018-02-21T07:14:48.754Z,45.80
2018-02-21T07:15:54.954Z,49.88
2018-02-21T07:17:01.106Z,47.08
2018-02-21T07:18:06.925Z,46.80
2018-02-21T07:19:13.115Z,46.00
2018-02-21T07:20:19.293Z,48.05
2018-02-21T07:21:25.501Z,49.42
2018-02-21T07:22:31.713Z,47.25
2018-02-21T07:23:37.861Z,50.50
2018-02-21T07:24:44.007Z,44.70
2018-02-21T07:25:50.205Z,52.05
2018-02-21T07:26:56.374Z,44.92
2018-02-21T07:28:02.590Z,46.60
2018-02-21T07:29:08.823Z,43.25
2018-02-21T07:30:14.971Z,51.42
2018-02-21T07:31:21.160Z,46.90
2018-02-21T07:32:27.347Z,47.45
2018-02-21T07:33:33.512Z,44.08
2018-02-21T07:34:39.748Z,42.95
2018-02-21T07:35:45.737Z,43.58
2018-02-21T07:36:51.971Z,44.85
2018-02-21T07:38:03.265Z,43.28
2018-02-21T07:39:09.431Z,43.53
2018-02-21T07:40:15.608Z,42.42
2018-02-21T07:41:22.028Z,46.95
2018-02-21T07:42:28.232Z,41.53
2018-02-21T07:43:34.442Z,46.37
2018-02-21T07:44:40.682Z,41.72
2018-02-21T07:45:46.937Z,43.83
2018-02-21T07:46:53.175Z,42.13
2018-02-21T07:47:59.398Z,45.80
2018-02-21T07:49:05.601Z,47.50
2018-02-21T07:50:11.745Z,51.20
2018-02-21T07:51:17.970Z,51.28
2018-02-21T07:52:24.168Z,49.25
2018-02-21T07:53:30.367Z,45.33
2018-02-21T07:54:36.528Z,44.05
2018-02-21T07:55:42.753Z,47.85
2018-02-21T07:56:48.952Z,44.35
2018-02-21T07:57:54.952Z,48.55
2018-02-21T07:59:01.093Z,40.97
2018-02-21T08:00:07.240Z,44.33
2018-02-21T08:01:13.453Z,40.28
2018-02-21T08:02:19.656Z,44.92
2018-02-21T08:03:25.900Z,43.55
2018-02-21T08:04:32.080Z,44.97
2018-02-21T08:05:38.265Z,44.45
2018-02-21T08:06:48.050Z,45.83
2018-02-21T08:07:55.292Z,40.42
2018-02-21T08:09:01.469Z,39.80
2018-02-21T08:10:07.616Z,44.33
2018-02-21T08:11:13.809Z,42.38
2018-02-21T08:12:19.962Z,42.28
2018-02-21T08:13:26.188Z,46.45
2018-02-21T08:14:32.342Z,41.42
2018-02-21T08:15:38.569Z,42.13
2018-02-21T08:16:44.721Z,46.08
2018-02-21T08:17:50.896Z,40.25
2018-02-21T08:18:57.086Z,39.00
2018-02-21T08:20:03.277Z,40.95
2018-02-21T08:21:09.226Z,44.05
2018-02-21T08:22:15.394Z,42.90
2018-02-21T08:23:21.585Z,44.85
2018-02-21T08:24:27.744Z,40.08
2018-02-21T08:25:34.012Z,43.15
2018-02-21T08:26:40.332Z,44.22
2018-02-21T08:27:47.721Z,42.30
2018-02-21T08:28:53.577Z,41.55
2018-02-21T08:29:59.786Z,43.83
2018-02-21T08:31:05.932Z,40.97
2018-02-21T08:32:11.798Z,44.00
2018-02-21T08:33:18.030Z,48.53
2018-02-21T08:34:24.477Z,45.70
2018-02-21T08:35:30.660Z,41.65
2018-02-21T08:36:36.824Z,40.30
2018-02-21T08:37:43.155Z,45.17
2018-02-21T08:38:49.333Z,42.97
2018-02-21T08:39:55.581Z,40.58
2018-02-21T08:41:01.777Z,42.72
2018-02-21T08:42:07.940Z,41.83
2018-02-21T08:43:14.152Z,38.38
2018-02-21T08:44:20.306Z,44.63
2018-02-21T08:45:26.539Z,40.70
2018-02-21T08:46:32.717Z,45.47
2018-02-21T08:47:39.832Z,46.58
2018-02-21T08:48:45.960Z,38.25
2018-02-21T08:49:52.202Z,44.33
2018-02-21T08:50:58.419Z,46.42
2018-02-21T08:52:04.944Z,42.75
2018-02-21T08:53:11.171Z,41.58
2018-02-21T08:54:17.346Z,41.88
2018-02-21T08:55:23.560Z,41.17
2018-02-21T08:56:32.730Z,42.58
2018-02-21T08:57:38.945Z,42.78
2018-02-21T08:58:45.197Z,40.42
2018-02-21T08:59:51.351Z,47.55
2018-02-21T09:00:57.517Z,46.17
2018-02-21T09:02:03.679Z,44.22
2018-02-21T09:03:09.877Z,49.42
2018-02-21T09:04:16.070Z,39.10
2018-02-21T09:05:22.288Z,43.85
2018-02-21T09:06:28.420Z,43.50
2018-02-21T09:07:34.568Z,40.90
2018-02-21T09:08:40.797Z,46.10
2018-02-21T09:09:47.003Z,38.85
2018-02-21T09:10:53.208Z,46.42
2018-02-21T09:11:59.359Z,44.25
2018-02-21T09:13:05.618Z,44.90
2018-02-21T09:14:11.816Z,47.45
2018-02-21T09:15:18.001Z,40.30
2018-02-21T09:16:24.240Z,46.45
2018-02-21T09:17:30.423Z,48.28
2018-02-21T09:18:36.634Z,43.40
2018-02-21T09:19:42.793Z,41.97
2018-02-21T09:20:49.700Z,40.45
2018-02-21T09:21:56.150Z,40.42
2018-02-21T09:23:02.400Z,43.85
2018-02-21T09:24:08.577Z,42.08
2018-02-21T09:25:14.731Z,41.78
2018-02-21T09:26:20.891Z,34.05
2018-02-21T09:27:27.064Z,48.30
2018-02-21T09:28:33.259Z,41.83
2018-02-21T09:29:39.420Z,39.40
2018-02-21T09:30:45.297Z,42.33
2018-02-21T09:31:51.447Z,48.13
2018-02-21T09:32:57.604Z,50.40
2018-02-21T09:34:03.747Z,48.87
2018-02-21T09:35:09.970Z,45.00
2018-02-21T09:36:16.134Z,49.22
2018-02-21T09:37:22.289Z,43.90
2018-02-21T09:38:28.462Z,47.42
2018-02-21T09:39:34.665Z,46.60
2018-02-21T09:40:40.869Z,41.60
2018-02-21T09:41:47.391Z,44.75
2018-02-21T09:42:53.700Z,47.38
2018-02-21T09:43:59.912Z,47.00
2018-02-21T09:45:06.189Z,47.53
2018-02-21T09:46:12.416Z,44.92
2018-02-21T09:47:18.640Z,40.10
2018-02-21T09:48:24.796Z,41.40
2018-02-21T09:49:31.133Z,49.92
2018-02-21T09:50:37.277Z,41.95
2018-02-21T09:51:43.454Z,41.25
2018-02-21T09:52:49.667Z,45.12
2018-02-21T09:53:55.869Z,45.12
2018-02-21T09:55:02.022Z,45.80
2018-02-21T09:56:08.190Z,44.17
2018-02-21T09:57:14.369Z,43.13
2018-02-21T09:58:20.806Z,41.35
2018-02-21T09:59:27.000Z,45.97
2018-02-21T10:00:33.148Z,44.45
2018-02-21T10:01:39.321Z,51.13
2018-02-21T10:02:45.540Z,42.72
2018-02-21T10:03:51.993Z,45.80
2018-02-21T10:04:58.147Z,44.78
2018-02-21T10:06:04.363Z,45.30
2018-02-21T10:07:10.806Z,49.05
2018-02-21T10:08:17.005Z,44.45
2018-02-21T10:09:23.007Z,40.83
2018-02-21T10:10:29.289Z,44.83
2018-02-21T10:11:35.534Z,40.60
2018-02-21T10:12:41.713Z,39.20
2018-02-21T10:13:47.896Z,40.55
2018-02-21T10:14:54.080Z,43.97
2018-02-21T10:16:00.260Z,40.17
2018-02-21T10:17:06.448Z,40.20
2018-02-21T10:18:12.683Z,39.17
2018-02-21T10:19:18.897Z,41.20
2018-02-21T10:20:25.107Z,40.55
2018-02-21T10:21:31.481Z,35.92
2018-02-21T10:22:37.363Z,39.95
2018-02-21T10:23:43.618Z,39.50
2018-02-21T10:24:49.801Z,39.67
2018-02-21T10:25:55.945Z,35.83
2018-02-21T10:27:02.133Z,36.85
2018-02-21T10:28:07.954Z,41.70
2018-02-21T10:29:14.155Z,40.80
2018-02-21T10:30:20.425Z,38.45
2018-02-21T10:31:26.647Z,37.78
2018-02-21T10:32:32.887Z,40.22
2018-02-21T10:33:39.032Z,37.50
2018-02-21T10:34:45.193Z,38.97
2018-02-21T10:35:51.408Z,40.53
2018-02-21T10:36:57.622Z,41.22
2018-02-21T10:38:03.775Z,42.30
2018-02-21T10:39:10.074Z,41.22
2018-02-21T10:40:16.234Z,35.13
2018-02-21T10:41:22.642Z,42.20
2018-02-21T10:42:28.843Z,34.58
2018-02-21T10:43:35.098Z,39.50
2018-02-21T10:44:46.164Z,40.30
2018-02-21T10:45:52.388Z,38.05
2018-02-21T10:47:04.825Z,38.15
2018-02-21T10:48:11.016Z,32.88
2018-02-21T10:49:17.178Z,34.88
2018-02-21T10:50:23.428Z,32.80
2018-02-21T10:51:29.580Z,37.45
2018-02-21T10:52:35.746Z,36.70
2018-02-21T10:53:42.024Z,38.92
2018-02-21T10:54:48.351Z,42.00
2018-02-21T10:55:54.569Z,37.30
2018-02-21T10:57:00.776Z,34.97
2018-02-21T10:58:06.892Z,38.60
2018-02-21T10:59:13.088Z,33.35
2018-02-21T11:00:24.564Z,38.00
2018-02-21T11:01:30.780Z,36.88
2018-02-21T11:02:36.945Z,37.40
2018-02-21T11:03:43.144Z,37.28
2018-02-21T11:04:49.288Z,34.88
2018-02-21T11:05:55.463Z,33.33
2018-02-21T11:07:01.670Z,42.10
2018-02-21T11:08:08.010Z,40.65
2018-02-21T11:09:14.157Z,32.75
2018-02-21T11:10:20.369Z,35.17
2018-02-21T11:11:26.530Z,28.87
2018-02-21T11:12:32.585Z,34.38
2018-02-21T11:13:39.162Z,31.87
2018-02-21T11:14:45.319Z,31.87
2018-02-21T11:15:51.489Z,39.65
2018-02-21T11:16:57.686Z,28.92
2018-02-21T11:18:03.928Z,35.88
2018-02-21T11:19:15.273Z,33.42
2018-02-21T11:20:21.450Z,31.75
2018-02-21T11:21:27.724Z,31.73
2018-02-21T11:22:33.883Z,30.42
2018-02-21T11:23:40.133Z,30.90
2018-02-21T11:24:46.539Z,31.02
2018-02-21T11:25:53.751Z,28.98
2018-02-21T11:26:59.945Z,30.10
2018-02-21T11:28:06.099Z,32.97
2018-02-21T11:29:12.319Z,31.73
2018-02-21T11:30:18.480Z,29.63
2018-02-21T11:31:24.697Z,31.37
2018-02-21T11:32:30.867Z,29.12
2018-02-21T11:33:37.000Z,30.37
2018-02-21T11:34:43.130Z,31.05
2018-02-21T11:35:49.378Z,30.37
2018-02-21T11:36:55.560Z,32.42
2018-02-21T11:38:01.805Z,29.02
2018-02-21T11:39:07.967Z,26.67
2018-02-21T11:40:14.101Z,29.02
2018-02-21T11:41:20.651Z,31.40
2018-02-21T11:42:26.801Z,29.48
2018-02-21T11:43:33.007Z,30.10
2018-02-21T11:44:39.283Z,29.42
2018-02-21T11:45:45.415Z,25.52
2018-02-21T11:46:51.557Z,26.90
2018-02-21T11:47:57.775Z,26.55
2018-02-21T11:49:03.936Z,25.00
2018-02-21T11:50:10.109Z,24.42
2018-02-21T11:51:16.304Z,26.73
2018-02-21T11:52:22.462Z,24.98
2018-02-21T11:53:28.628Z,23.92
2018-02-21T11:54:34.838Z,26.23
2018-02-21T11:55:41.005Z,27.23
2018-02-21T11:56:47.162Z,28.60
2018-02-21T11:57:53.400Z,29.45
2018-02-21T11:58:59.648Z,37.22
2018-02-21T12:00:05.477Z,31.35
2018-02-21T12:01:11.392Z,24.30
2018-02-21T12:02:17.548Z,31.77
2018-02-21T12:03:23.745Z,28.62
2018-02-21T12:04:29.871Z,25.67
2018-02-21T12:05:36.225Z,26.80
2018-02-21T12:06:42.384Z,27.87
2018-02-21T12:07:48.796Z,25.58
2018-02-21T12:08:55.006Z,20.70
2018-02-21T12:10:01.594Z,21.58
2018-02-21T12:11:07.735Z,20.48
2018-02-21T12:12:13.910Z,24.45
2018-02-21T12:13:19.789Z,20.73
2018-02-21T12:14:33.157Z,25.80
2018-02-21T12:15:39.304Z,23.67
2018-02-21T12:16:45.541Z,21.37
2018-02-21T12:17:51.756Z,24.70
2018-02-21T12:18:57.901Z,17.83
2018-02-21T12:20:04.141Z,23.48
2018-02-21T12:21:10.319Z,17.95
2018-02-21T12:22:16.577Z,19.90
2018-02-21T12:23:22.765Z,22.20
2018-02-21T12:24:28.965Z,19.85
2018-02-21T12:25:35.099Z,24.92
2018-02-21T12:26:41.750Z,24.45
2018-02-21T12:27:48.151Z,24.87
2018-02-21T12:28:54.296Z,29.50
2018-02-21T12:30:00.584Z,30.45
2018-02-21T12:31:06.592Z,28.60
2018-02-21T12:32:13.991Z,27.30
2018-02-21T12:33:20.191Z,27.40
2018-02-21T12:34:26.347Z,30.17
2018-02-21T12:35:32.538Z,27.27
2018-02-21T12:36:38.709Z,23.77
2018-02-21T12:37:44.885Z,24.85
2018-02-21T12:38:56.391Z,25.88
2018-02-21T12:40:02.357Z,24.87
2018-02-21T12:41:14.098Z,23.48
2018-02-21T12:42:20.234Z,24.63
2018-02-21T12:43:26.462Z,24.70
2018-02-21T12:44:32.680Z,21.10
2018-02-21T12:45:38.822Z,22.25
2018-02-21T12:46:45.012Z,19.52
2018-02-21T12:47:51.135Z,21.40
2018-02-21T12:48:57.348Z,19.90
2018-02-21T12:50:03.194Z,19.25
2018-02-21T12:51:09.073Z,21.15
2018-02-21T12:52:15.335Z,20.88
2018-02-21T12:53:21.481Z,18.17
2018-02-21T12:54:27.695Z,19.90
2018-02-21T12:55:33.901Z,20.15
2018-02-21T12:56:40.102Z,19.48
2018-02-21T12:57:46.240Z,26.45
2018-02-21T12:58:52.394Z,19.65
2018-02-21T12:59:58.599Z,19.50
2018-02-21T13:01:04.757Z,18.25
2018-02-21T13:02:10.995Z,19.00
2018-02-21T13:03:17.229Z,19.35
2018-02-21T13:04:23.391Z,17.12
2018-02-21T13:05:29.567Z,18.98
2018-02-21T13:06:35.729Z,21.27
2018-02-21T13:07:41.909Z,20.27
2018-02-21T13:08:48.053Z,18.33
2018-02-21T13:09:54.484Z,19.23
2018-02-21T13:11:00.401Z,21.02
2018-02-21T13:12:07.338Z,19.25
2018-02-21T13:13:13.452Z,21.73
2018-02-21T13:14:19.651Z,18.30
2018-02-21T13:15:26.455Z,17.67
2018-02-21T13:16:32.635Z,17.55
2018-02-21T13:17:41.630Z,19.08
2018-02-21T13:18:48.107Z,17.40
2018-02-21T13:19:54.279Z,21.40
2018-02-21T13:21:00.498Z,19.70
2018-02-21T13:22:06.698Z,18.08
2018-02-21T13:23:12.878Z,20.73
2018-02-21T13:24:19.075Z,19.25
2018-02-21T13:25:25.273Z,20.50
2018-02-21T13:26:31.775Z,19.73
2018-02-21T13:27:37.926Z,21.75
2018-02-21T13:28:44.048Z,20.42
2018-02-21T13:29:50.224Z,23.70
2018-02-21T13:30:56.427Z,22.45
2018-02-21T13:32:02.609Z,21.15
2018-02-21T13:33:08.797Z,21.52
2018-02-21T13:34:14.958Z,19.92
2018-02-21T13:35:21.179Z,22.00
2018-02-21T13:36:27.554Z,18.33
2018-02-21T13:37:33.788Z,19.02
2018-02-21T13:38:39.747Z,20.02
2018-02-21T13:39:45.924Z,18.08
2018-02-21T13:40:52.081Z,21.42
2018-02-21T13:41:58.224Z,16.30
2018-02-21T13:43:04.442Z,18.27
2018-02-21T13:44:10.614Z,21.67
2018-02-21T13:45:16.748Z,20.15
2018-02-21T13:46:22.931Z,20.35
2018-02-21T13:47:29.144Z,18.08
2018-02-21T13:48:35.296Z,19.55
2018-02-21T13:49:41.502Z,18.75
2018-02-21T13:50:47.710Z,16.67
2018-02-21T13:51:53.868Z,18.37
2018-02-21T13:53:00.056Z,18.50
2018-02-21T13:54:06.220Z,14.48
2018-02-21T13:55:12.418Z,14.13
2018-02-21T13:56:18.578Z,17.00
2018-02-21T13:57:24.727Z,18.45
2018-02-21T13:58:30.870Z,17.35
2018-02-21T13:59:37.076Z,17.90
2018-02-21T14:00:43.285Z,18.50
2018-02-21T14:01:49.495Z,15.35
2018-02-21T14:02:55.651Z,16.23
2018-02-21T14:04:01.810Z,17.67
2018-02-21T14:05:08.023Z,17.08
2018-02-21T14:06:14.193Z,15.48
2018-02-21T14:07:20.341Z,19.77
2018-02-21T14:08:26.596Z,17.37
2018-02-21T14:09:32.774Z,15.73
2018-02-21T14:10:38.992Z,17.00
2018-02-21T14:11:45.193Z,14.98
2018-02-21T14:12:51.666Z,17.30
2018-02-21T14:13:57.810Z,15.23
2018-02-21T14:15:04.025Z,17.70
2018-02-21T14:16:10.550Z,17.35
2018-02-21T14:17:16.785Z,18.23